createdAt,value
2022-09-28T00:02:25.700Z,97033.53
2022-09-28T00:04:56.330Z,97030.47
2022-09-28T00:07:25.439Z,97027.81
2022-09-28T00:09:54.531Z,97031.25
2022-09-28T00:12:24.336Z,97035.59
2022-09-28T00:14:54.059Z,97030.91
2022-09-28T00:17:24.039Z,97021.00
2022-09-28T00:19:53.188Z,97013.44
2022-09-28T00:22:23.796Z,97016.31
2022-09-28T00:24:52.875Z,97012.28
2022-09-28T00:27:22.001Z,97027.66
2022-09-28T00:29:52.138Z,97015.31
2022-09-28T00:32:24.579Z,97000.78
2022-09-28T00:34:53.944Z,96997.03
2022-09-28T00:37:24.543Z,97006.41
2022-09-28T00:39:53.748Z,97012.78
2022-09-28T00:42:25.490Z,97013.50
2022-09-28T00:44:55.132Z,97014.72
2022-09-28T00:47:39.632Z,97013.84
2022-09-28T00:50:18.326Z,97009.25
2022-09-28T00:52:54.593Z,97011.00
2022-09-28T00:55:32.589Z,97006.66
2022-09-28T00:58:05.319Z,96990.44
2022-09-28T01:00:34.650Z,96987.84
2022-09-28T01:03:05.972Z,96996.88
2022-09-28T01:05:36.231Z,97005.25
2022-09-28T01:08:08.680Z,97006.38
2022-09-28T01:10:37.793Z,97005.72
2022-09-28T01:13:06.881Z,96996.97
2022-09-28T01:15:47.901Z,96990.97
2022-09-28T01:18:27.911Z,96978.66
2022-09-28T01:21:02.805Z,96987.00
2022-09-28T01:23:58.891Z,96995.88
2022-09-28T01:27:10.892Z,97004.34
2022-09-28T01:29:49.273Z,97001.25
2022-09-28T01:32:36.067Z,97003.41
2022-09-28T01:35:10.082Z,97005.19
2022-09-28T01:37:48.989Z,97005.13
2022-09-28T01:40:22.762Z,97002.59
2022-09-28T01:42:59.757Z,97008.31
2022-09-28T01:45:33.972Z,97001.47
2022-09-28T01:48:07.821Z,97003.84
2022-09-28T01:50:43.038Z,97003.00
2022-09-28T01:53:20.461Z,96991.16
2022-09-28T01:55:56.058Z,97002.28
2022-09-28T01:58:34.440Z,96994.25
2022-09-28T02:01:10.425Z,96999.50
2022-09-28T02:03:47.507Z,96992.47
2022-09-28T02:06:23.570Z,96980.66
2022-09-28T02:08:57.839Z,96979.19
2022-09-28T02:11:37.494Z,96981.81
2022-09-28T02:14:12.839Z,96977.97
2022-09-28T02:16:45.917Z,96968.13
2022-09-28T02:19:18.791Z,96966.06
2022-09-28T02:21:59.701Z,96960.13
2022-09-28T02:24:36.640Z,96965.94
2022-09-28T02:27:13.853Z,96967.63
2022-09-28T02:29:45.306Z,96962.97
2022-09-28T02:32:14.641Z,96969.25
2022-09-28T02:34:45.832Z,96970.78
2022-09-28T02:37:15.004Z,96963.78
2022-09-28T02:39:44.060Z,96956.81
2022-09-28T02:42:21.312Z,96963.13
2022-09-28T02:45:09.377Z,96968.28
2022-09-28T02:47:53.873Z,96968.47
2022-09-28T02:50:38.038Z,96974.84
2022-09-28T02:53:58.781Z,96974.16
2022-09-28T02:57:06.360Z,96982.78
2022-09-28T02:59:50.611Z,96986.78
2022-09-28T03:02:29.946Z,96980.28
2022-09-28T03:05:13.448Z,96970.91
2022-09-28T03:07:52.328Z,96971.34
2022-09-28T03:10:33.061Z,96973.59
2022-09-28T03:13:03.376Z,96978.25
2022-09-28T03:15:35.666Z,96972.50
2022-09-28T03:18:06.304Z,96975.19
2022-09-28T03:20:36.241Z,96982.47
2022-09-28T03:23:23.794Z,96986.34
2022-09-28T03:25:53.790Z,96977.47
2022-09-28T03:28:23.337Z,96985.50
2022-09-28T03:30:53.183Z,96975.84
2022-09-28T03:33:24.408Z,96983.81
2022-09-28T03:35:53.568Z,96976.53
2022-09-28T03:38:22.969Z,96968.94
2022-09-28T03:40:55.976Z,96962.97
2022-09-28T03:43:28.476Z,96965.44
2022-09-28T03:46:01.949Z,96967.38
2022-09-28T03:48:37.375Z,96961.59
2022-09-28T03:51:09.599Z,96964.56
2022-09-28T03:53:39.269Z,96950.31
2022-09-28T03:56:13.608Z,96957.66
2022-09-28T03:58:43.948Z,96956.09
2022-09-28T04:01:17.833Z,96952.88
2022-09-28T04:03:55.971Z,96949.50
2022-09-28T04:06:26.625Z,96952.56
2022-09-28T04:08:56.016Z,96952.66
2022-09-28T04:11:25.501Z,96947.41
2022-09-28T04:13:54.560Z,96942.59
2022-09-28T04:16:24.965Z,96940.19
2022-09-28T04:19:09.857Z,96935.31
2022-09-28T04:22:00.795Z,96937.63
2022-09-28T04:24:29.889Z,96941.09
2022-09-28T04:27:18.948Z,96933.13
2022-09-28T04:29:48.924Z,96932.91
2022-09-28T04:32:18.829Z,96932.28
2022-09-28T04:34:49.597Z,96933.06
2022-09-28T04:37:18.921Z,96927.53
2022-09-28T04:39:50.845Z,96928.47
2022-09-28T04:42:21.694Z,96934.59
2022-09-28T04:44:52.696Z,96933.19
2022-09-28T04:47:21.989Z,96930.44
2022-09-28T04:50:11.010Z,96940.19
2022-09-28T04:53:02.324Z,96931.53
2022-09-28T04:55:34.808Z,96923.19
2022-09-28T04:58:05.885Z,96915.41
2022-09-28T05:00:35.961Z,96926.84
2022-09-28T05:03:28.525Z,96917.38
2022-09-28T05:06:19.296Z,96919.00
2022-09-28T05:08:50.171Z,96919.44
2022-09-28T05:11:21.603Z,96922.94
2022-09-28T05:13:50.744Z,96936.31
2022-09-28T05:16:21.767Z,96935.72
2022-09-28T05:19:09.669Z,96939.66
2022-09-28T05:21:40.792Z,96941.84
2022-09-28T05:24:09.900Z,96939.91
2022-09-28T05:26:40.292Z,96937.66
2022-09-28T05:29:11.871Z,96935.13
2022-09-28T05:31:45.404Z,96949.88
2022-09-28T05:34:37.491Z,96945.50
2022-09-28T05:37:08.592Z,96939.50
2022-09-28T05:39:37.705Z,96932.03
2022-09-28T05:42:08.037Z,96920.91
2022-09-28T05:44:38.532Z,96927.22
2022-09-28T05:47:07.993Z,96917.47
2022-09-28T05:49:37.113Z,96927.84
2022-09-28T05:52:06.393Z,96929.09
2022-09-28T05:54:40.869Z,96921.78
2022-09-28T05:57:10.046Z,96917.28
2022-09-28T05:59:39.310Z,96917.94
2022-09-28T06:02:08.722Z,96904.22
2022-09-28T06:04:38.210Z,96913.09
2022-09-28T06:07:07.674Z,96920.72
2022-09-28T06:09:39.006Z,96919.19
2022-09-28T06:12:21.015Z,96917.41
2022-09-28T06:14:52.130Z,96904.47
2022-09-28T06:17:21.526Z,96898.00
2022-09-28T06:20:11.800Z,96897.47
2022-09-28T06:23:09.957Z,96902.91
2022-09-28T06:25:39.639Z,96908.84
2022-09-28T06:28:13.054Z,96920.13
2022-09-28T06:30:43.894Z,96927.72
2022-09-28T06:33:16.913Z,96931.59
2022-09-28T06:35:49.022Z,96935.53
2022-09-28T06:38:18.451Z,96934.38
2022-09-28T06:40:50.093Z,96934.75
2022-09-28T06:43:23.323Z,96918.88
2022-09-28T06:46:31.525Z,96911.19
2022-09-28T06:49:00.603Z,96914.34
2022-09-28T06:51:55.098Z,96904.72
2022-09-28T06:54:35.920Z,96911.59
2022-09-28T06:57:15.772Z,96913.69
2022-09-28T06:59:46.432Z,96906.34
2022-09-28T07:02:15.601Z,96905.75
2022-09-28T07:04:44.919Z,96896.00
2022-09-28T07:07:14.220Z,96906.00
2022-09-28T07:09:50.289Z,96916.66
2022-09-28T07:12:34.887Z,96906.25
2022-09-28T07:15:09.560Z,96893.19
2022-09-28T07:17:51.614Z,96894.06
2022-09-28T07:20:25.132Z,96883.91
2022-09-28T07:23:01.745Z,96885.44
2022-09-28T07:25:58.137Z,96888.34
2022-09-28T07:28:34.280Z,96874.47
2022-09-28T07:31:21.510Z,96871.69
2022-09-28T07:34:11.441Z,96865.31
2022-09-28T07:37:11.035Z,96866.97
2022-09-28T07:40:00.271Z,96865.16
2022-09-28T07:42:32.108Z,96856.94
2022-09-28T07:45:01.382Z,96848.78
2022-09-28T07:47:35.108Z,96852.16
2022-09-28T07:50:22.912Z,96852.19
2022-09-28T07:53:05.829Z,96853.03
2022-09-28T07:55:54.472Z,96860.06
2022-09-28T07:58:39.091Z,96868.66
2022-09-28T08:01:31.015Z,96861.72
2022-09-28T08:04:03.164Z,96872.06
2022-09-28T08:06:32.609Z,96877.69
2022-09-28T08:09:05.537Z,96872.78
2022-09-28T08:11:59.690Z,96862.16
2022-09-28T08:14:49.211Z,96863.75
2022-09-28T08:17:31.541Z,96846.28
2022-09-28T08:20:21.653Z,96855.22
2022-09-28T08:22:51.071Z,96841.84
2022-09-28T08:25:20.850Z,96838.16
2022-09-28T08:27:50.282Z,96832.16
2022-09-28T08:30:20.076Z,96838.00
2022-09-28T08:32:55.321Z,96836.59
2022-09-28T08:35:44.673Z,96841.28
2022-09-28T08:38:16.564Z,96839.72
2022-09-28T08:41:44.876Z,96842.97
2022-09-28T08:44:44.744Z,96849.06
2022-09-28T08:48:09.645Z,96854.72
2022-09-28T08:51:00.213Z,96856.03
2022-09-28T08:54:12.109Z,96853.81
2022-09-28T08:56:55.600Z,96850.06
2022-09-28T08:59:30.345Z,96850.06
2022-09-28T09:02:19.755Z,96846.00
2022-09-28T09:04:49.946Z,96832.66
2022-09-28T09:07:48.477Z,96840.00
2022-09-28T09:10:52.831Z,96837.50
2022-09-28T09:13:53.320Z,96833.19
2022-09-28T09:16:37.913Z,96829.91
2022-09-28T09:19:47.039Z,96826.00
2022-09-28T09:22:46.347Z,96818.59
2022-09-28T09:25:22.686Z,96807.44
2022-09-28T09:28:18.840Z,96814.00
2022-09-28T09:30:58.510Z,96807.53
2022-09-28T09:34:02.769Z,96808.09
2022-09-28T09:37:12.041Z,96812.19
2022-09-28T09:40:11.152Z,96820.00
2022-09-28T09:43:19.491Z,96814.09
2022-09-28T09:46:14.979Z,96830.88
2022-09-28T09:49:10.182Z,96826.19
2022-09-28T09:51:47.068Z,96822.59
2022-09-28T09:54:25.105Z,96814.34
2022-09-28T09:57:00.787Z,96819.72
2022-09-28T10:00:04.401Z,96828.94
2022-09-28T10:03:02.429Z,96812.00
2022-09-28T10:05:45.001Z,96809.53
2022-09-28T10:08:19.225Z,96800.59
2022-09-28T10:10:52.861Z,96808.84
2022-09-28T10:13:24.538Z,96799.47
2022-09-28T10:15:57.196Z,96801.97
2022-09-28T10:18:38.994Z,96794.06
2022-09-28T10:21:27.012Z,96798.69
2022-09-28T10:24:26.276Z,96789.44
2022-09-28T10:26:57.328Z,96780.66
2022-09-28T10:29:33.092Z,96777.22
2022-09-28T10:32:20.174Z,96777.06
2022-09-28T10:34:51.026Z,96783.00
2022-09-28T10:37:24.142Z,96781.03
2022-09-28T10:40:32.703Z,96779.56
2022-09-28T10:43:09.096Z,96771.38
2022-09-28T10:45:40.738Z,96760.03
2022-09-28T10:48:21.368Z,96754.66
2022-09-28T10:51:05.291Z,96741.84
2022-09-28T10:53:37.528Z,96754.56
2022-09-28T10:56:21.850Z,96765.22
2022-09-28T10:58:56.131Z,96759.06
2022-09-28T11:01:35.555Z,96758.19
2022-09-28T11:04:08.222Z,96758.63
2022-09-28T11:06:41.836Z,96753.75
2022-09-28T11:09:30.588Z,96755.88
2022-09-28T11:12:07.629Z,96751.88
2022-09-28T11:14:42.724Z,96749.81
2022-09-28T11:17:29.376Z,96743.31
2022-09-28T11:20:02.376Z,96735.38
2022-09-28T11:22:41.991Z,96741.88
2022-09-28T11:25:24.496Z,96735.31
2022-09-28T11:28:00.668Z,96751.03
2022-09-28T11:30:34.916Z,96733.28
2022-09-28T11:33:31.589Z,96738.44
2022-09-28T11:36:41.665Z,96723.81
2022-09-28T11:39:17.947Z,96720.16
2022-09-28T11:42:10.999Z,96715.50
2022-09-28T11:44:48.116Z,96711.38
2022-09-28T11:47:50.653Z,96720.94
2022-09-28T11:50:33.910Z,96719.44
2022-09-28T11:53:19.019Z,96714.34
2022-09-28T11:55:58.454Z,96715.56
2022-09-28T11:58:34.316Z,96712.28
2022-09-28T12:01:09.897Z,96716.38
2022-09-28T12:04:05.115Z,96712.38
2022-09-28T12:06:45.349Z,96715.91
2022-09-28T12:09:26.266Z,96711.22
2022-09-28T12:12:06.325Z,96710.94
2022-09-28T12:14:48.603Z,96707.03
2022-09-28T12:17:25.824Z,96696.69
2022-09-28T12:20:02.662Z,96706.44
2022-09-28T12:22:38.228Z,96713.97
2022-09-28T12:25:15.577Z,96708.00
2022-09-28T12:27:50.626Z,96707.25
2022-09-28T12:30:22.318Z,96705.00
2022-09-28T12:32:56.512Z,96711.31
2022-09-28T12:35:41.951Z,96710.56
2022-09-28T12:38:32.137Z,96709.16
2022-09-28T12:41:16.780Z,96708.44
2022-09-28T12:44:08.573Z,96692.34
2022-09-28T12:47:05.535Z,96699.78
2022-09-28T12:50:37.012Z,96701.38
2022-09-28T12:52:47.764Z,96692.22
2022-09-28T12:55:51.728Z,96677.41
2022-09-28T12:58:40.091Z,96680.16
2022-09-28T13:01:29.746Z,96681.59
2022-09-28T13:04:32.469Z,96682.72
2022-09-28T13:07:07.045Z,96682.81
2022-09-28T13:09:48.649Z,96674.09
2022-09-28T13:12:48.238Z,96678.16
2022-09-28T13:15:44.922Z,96686.44
2022-09-28T13:18:22.875Z,96681.53
2022-09-28T13:21:06.837Z,96683.34
2022-09-28T13:23:41.361Z,96688.75
2022-09-28T13:26:22.481Z,96687.47
2022-09-28T13:28:55.795Z,96701.84
2022-09-28T13:31:33.175Z,96688.78
2022-09-28T13:34:07.216Z,96683.13
2022-09-28T13:36:41.015Z,96692.03
2022-09-28T13:39:39.278Z,96686.53
2022-09-28T13:42:10.793Z,96682.28
2022-09-28T13:45:35.933Z,96689.88
2022-09-28T13:48:15.800Z,96688.34
2022-09-28T13:51:19.889Z,96689.59
2022-09-28T13:54:06.956Z,96685.38
2022-09-28T13:56:49.218Z,96679.84
2022-09-28T13:59:27.277Z,96678.47
2022-09-28T14:02:07.189Z,96676.00
2022-09-28T14:05:06.928Z,96677.31
2022-09-28T14:08:11.289Z,96672.63
2022-09-28T14:10:52.798Z,96668.78
2022-09-28T14:14:01.652Z,96665.66
2022-09-28T14:16:33.848Z,96662.34
2022-09-28T14:19:09.595Z,96654.66
2022-09-28T14:22:08.150Z,96657.06
2022-09-28T14:24:56.638Z,96662.34
2022-09-28T14:28:00.300Z,96669.84
2022-09-28T14:30:49.455Z,96659.66
2022-09-28T14:33:26.654Z,96671.00
2022-09-28T14:35:59.055Z,96664.75
2022-09-28T14:38:51.035Z,96671.22
2022-09-28T14:41:34.557Z,96666.28
2022-09-28T14:44:09.151Z,96668.47
2022-09-28T14:46:45.568Z,96676.09
2022-09-28T14:49:51.373Z,96668.91
2022-09-28T14:52:41.876Z,96668.50
2022-09-28T14:55:20.688Z,96673.97
2022-09-28T14:57:56.603Z,96667.91
2022-09-28T15:00:32.013Z,96673.41
2022-09-28T15:03:10.211Z,96675.00
2022-09-28T15:05:47.181Z,96674.06
2022-09-28T15:08:18.062Z,96672.72
2022-09-28T15:10:50.525Z,96661.56
2022-09-28T15:13:25.197Z,96665.69
2022-09-28T15:16:00.959Z,96670.28
2022-09-28T15:19:04.681Z,96661.81
2022-09-28T15:21:42.570Z,96664.75
2022-09-28T15:24:34.428Z,96662.59
2022-09-28T15:27:16.174Z,96666.69
2022-09-28T15:29:58.513Z,96663.69
2022-09-28T15:32:28.709Z,96664.38
2022-09-28T15:34:58.565Z,96668.06
2022-09-28T15:37:39.591Z,96673.53
2022-09-28T15:40:16.786Z,96677.94
2022-09-28T15:42:47.620Z,96667.44
2022-09-28T15:45:30.765Z,96674.44
2022-09-28T15:48:21.602Z,96676.75
2022-09-28T15:51:02.298Z,96669.09
2022-09-28T15:53:31.407Z,96674.97
2022-09-28T15:56:10.161Z,96678.94
2022-09-28T15:58:41.468Z,96669.72
2022-09-28T16:01:36.490Z,96668.25
2022-09-28T16:04:41.127Z,96678.34
2022-09-28T16:07:39.642Z,96680.06
2022-09-28T16:10:33.896Z,96680.44
2022-09-28T16:13:18.659Z,96670.13
2022-09-28T16:15:59.959Z,96669.50
2022-09-28T16:18:35.707Z,96665.75
2022-09-28T16:21:39.202Z,96671.41
2022-09-28T16:24:10.200Z,96663.59
2022-09-28T16:26:39.914Z,96661.72
2022-09-28T16:29:26.182Z,96667.09
2022-09-28T16:31:56.729Z,96669.59
2022-09-28T16:34:28.697Z,96669.31
2022-09-28T16:36:57.717Z,96665.91
2022-09-28T16:39:26.817Z,96669.34
2022-09-28T16:42:01.990Z,96664.97
2022-09-28T16:44:32.834Z,96674.38
2022-09-28T16:47:04.043Z,96665.31
2022-09-28T16:49:36.029Z,96666.09
2022-09-28T16:52:05.165Z,96669.38
2022-09-28T16:54:54.560Z,96680.69
2022-09-28T16:57:23.846Z,96676.63
2022-09-28T16:59:57.557Z,96673.22
2022-09-28T17:02:46.286Z,96665.53
2022-09-28T17:05:16.901Z,96667.88
2022-09-28T17:07:46.530Z,96664.75
2022-09-28T17:10:25.405Z,96672.75
2022-09-28T17:12:59.531Z,96665.72
2022-09-28T17:15:29.836Z,96666.97
2022-09-28T17:18:00.477Z,96671.03
2022-09-28T17:20:31.499Z,96666.00
2022-09-28T17:23:03.273Z,96661.00
2022-09-28T17:25:32.549Z,96668.38
2022-09-28T17:28:02.452Z,96670.09
2022-09-28T17:30:31.550Z,96666.97
2022-09-28T17:33:02.080Z,96682.66
2022-09-28T17:35:32.518Z,96673.28
2022-09-28T17:38:03.333Z,96679.88
2022-09-28T17:40:34.808Z,96680.66
2022-09-28T17:43:05.769Z,96672.97
2022-09-28T17:45:38.964Z,96673.94
2022-09-28T17:48:15.809Z,96674.88
2022-09-28T17:50:47.532Z,96679.59
2022-09-28T17:53:17.043Z,96665.50
2022-09-28T17:55:46.275Z,96671.63
2022-09-28T17:58:24.096Z,96669.09
2022-09-28T18:00:53.878Z,96677.25
2022-09-28T18:03:27.081Z,96672.88
2022-09-28T18:06:06.830Z,96675.50
2022-09-28T18:08:40.093Z,96671.78
2022-09-28T18:11:09.328Z,96671.44
2022-09-28T18:13:38.887Z,96672.88
2022-09-28T18:16:10.376Z,96674.91
2022-09-28T18:18:43.518Z,96670.84
2022-09-28T18:21:14.487Z,96676.28
2022-09-28T18:23:45.290Z,96672.41
2022-09-28T18:26:16.086Z,96662.06
2022-09-28T18:28:50.241Z,96663.78
2022-09-28T18:31:26.287Z,96662.69
2022-09-28T18:34:02.216Z,96668.00
2022-09-28T18:36:49.217Z,96679.13
2022-09-28T18:39:19.934Z,96684.59
2022-09-28T18:41:49.524Z,96680.84
2022-09-28T18:44:23.361Z,96672.56
2022-09-28T18:46:52.734Z,96685.22
2022-09-28T18:49:25.706Z,96678.94
2022-09-28T18:51:55.499Z,96678.34
2022-09-28T18:54:25.416Z,96675.06
2022-09-28T18:57:03.149Z,96676.16
2022-09-28T18:59:32.770Z,96681.94
2022-09-28T19:02:02.724Z,96671.44
2022-09-28T19:04:46.473Z,96669.56
2022-09-28T19:07:16.955Z,96671.78
2022-09-28T19:09:47.029Z,96679.59
2022-09-28T19:12:16.561Z,96686.00
2022-09-28T19:14:46.099Z,96685.22
2022-09-28T19:17:15.489Z,96682.38
2022-09-28T19:19:46.459Z,96680.66
2022-09-28T19:22:16.165Z,96676.41
2022-09-28T19:24:46.147Z,96678.91
2022-09-28T19:27:15.901Z,96672.31
2022-09-28T19:29:47.575Z,96669.50
2022-09-28T19:32:17.398Z,96676.41
2022-09-28T19:34:48.689Z,96680.31
2022-09-28T19:37:17.826Z,96679.53
2022-09-28T19:39:46.813Z,96681.75
2022-09-28T19:42:16.064Z,96675.00
2022-09-28T19:44:48.160Z,96684.72
2022-09-28T19:47:18.809Z,96679.38
2022-09-28T19:49:49.795Z,96686.72
2022-09-28T19:52:18.868Z,96688.00
2022-09-28T19:54:56.970Z,96692.09
2022-09-28T19:57:27.796Z,96699.91
2022-09-28T20:00:02.139Z,96696.75
2022-09-28T20:02:34.584Z,96696.88
2022-09-28T20:05:05.779Z,96694.53
2022-09-28T20:07:36.245Z,96690.91
2022-09-28T20:10:08.928Z,96686.72
2022-09-28T20:12:38.330Z,96681.41
2022-09-28T20:15:13.491Z,96686.06
2022-09-28T20:17:42.619Z,96692.66
2022-09-28T20:20:15.073Z,96703.00
2022-09-28T20:22:44.459Z,96703.78
2022-09-28T20:25:13.515Z,96705.19
2022-09-28T20:27:42.732Z,96703.94
2022-09-28T20:30:13.796Z,96705.22
2022-09-28T20:32:49.406Z,96697.69
2022-09-28T20:35:32.211Z,96695.63
2022-09-28T20:38:08.194Z,96693.91
2022-09-28T20:40:37.726Z,96688.59
2022-09-28T20:43:07.290Z,96697.66
2022-09-28T20:45:37.525Z,96698.31
2022-09-28T20:48:08.129Z,96695.63
2022-09-28T20:50:38.623Z,96693.59
2022-09-28T20:53:07.808Z,96691.88
2022-09-28T20:55:36.896Z,96693.00
2022-09-28T20:58:06.829Z,96693.59
2022-09-28T21:00:36.540Z,96700.00
2022-09-28T21:03:05.734Z,96704.56
2022-09-28T21:05:38.443Z,96704.84
2022-09-28T21:08:07.579Z,96695.16
2022-09-28T21:10:36.539Z,96710.81
2022-09-28T21:13:07.690Z,96713.94
2022-09-28T21:15:39.677Z,96711.41
2022-09-28T21:18:11.560Z,96705.50
2022-09-28T21:20:47.481Z,96696.72
2022-09-28T21:23:17.801Z,96698.00
2022-09-28T21:25:48.777Z,96695.66
2022-09-28T21:28:18.849Z,96702.72
2022-09-28T21:30:48.108Z,96700.22
2022-09-28T21:33:17.299Z,96703.97
2022-09-28T21:35:47.782Z,96711.34
2022-09-28T21:38:19.892Z,96712.75
2022-09-28T21:40:49.173Z,96713.41
2022-09-28T21:43:21.139Z,96697.28
2022-09-28T21:45:53.316Z,96696.50
2022-09-28T21:48:29.385Z,96705.91
2022-09-28T21:51:01.874Z,96694.78
2022-09-28T21:53:33.016Z,96701.97
2022-09-28T21:56:04.002Z,96705.59
2022-09-28T21:58:35.450Z,96708.72
2022-09-28T22:01:11.121Z,96707.00
2022-09-28T22:03:40.458Z,96713.41
2022-09-28T22:06:11.542Z,96723.91
2022-09-28T22:08:41.052Z,96714.19
2022-09-28T22:11:13.224Z,96705.28
2022-09-28T22:13:45.428Z,96708.41
2022-09-28T22:16:16.261Z,96704.97
2022-09-28T22:18:46.138Z,96699.34
2022-09-28T22:21:19.715Z,96697.63
2022-09-28T22:23:49.847Z,96703.25
2022-09-28T22:26:22.828Z,96696.84
2022-09-28T22:28:54.801Z,96700.75
2022-09-28T22:31:29.229Z,96700.75
2022-09-28T22:33:59.328Z,96703.25
2022-09-28T22:36:30.569Z,96699.19
2022-09-28T22:39:00.531Z,96714.38
2022-09-28T22:41:30.099Z,96708.75
2022-09-28T22:43:59.742Z,96712.16
2022-09-28T22:46:32.307Z,96706.22
2022-09-28T22:49:02.253Z,96714.81
2022-09-28T22:51:33.543Z,96715.63
2022-09-28T22:54:04.990Z,96730.97
2022-09-28T22:56:36.942Z,96726.09
2022-09-28T22:59:06.093Z,96725.63
2022-09-28T23:01:35.863Z,96724.06
2022-09-28T23:04:05.155Z,96720.31
2022-09-28T23:06:35.641Z,96716.25
2022-09-28T23:09:07.961Z,96724.69
2022-09-28T23:11:37.457Z,96719.53
2022-09-28T23:14:06.689Z,96730.03
2022-09-28T23:16:35.767Z,96717.19
2022-09-28T23:19:07.472Z,96706.22
2022-09-28T23:21:38.529Z,96699.31
2022-09-28T23:24:07.795Z,96694.31
2022-09-28T23:26:37.045Z,96689.94
2022-09-28T23:29:06.150Z,96685.84
2022-09-28T23:31:35.869Z,96687.72
2022-09-28T23:34:07.604Z,96689.63
2022-09-28T23:36:38.096Z,96686.78
2022-09-28T23:39:13.796Z,96690.09
2022-09-28T23:41:42.852Z,96694.94
2022-09-28T23:44:11.907Z,96695.88
2022-09-28T23:46:40.972Z,96694.94
2022-09-28T23:49:10.253Z,96698.06
2022-09-28T23:51:40.773Z,96712.19
2022-09-28T23:54:09.928Z,96716.25
2022-09-28T23:56:39.060Z,96710.28
2022-09-28T23:59:08.742Z,96712.66
